Hanoverton, Ohio
Current Conditions -  °F | °C
As of 8:51 AM on Saturday 25 Oct 2014 (Local Time) from KCAK Reporting Station
Haze Haze  
Wind Chill: 44°   Ceiling: 8500
Heat Index: 47°   Visibility: 6mi
Dew Point: 42°   Wind: 6mph
Humidity: 83%   Direction: 220°SW
Pressure: 29.93"   Gusts: NA
Location:  40.75°N, 80.94°W
Report Text: KCAK 251251Z 22005KT 6SM HZ BKN085 08/06 A2993 RMK AO2 SLP139 T00830056
Loading
Personal Weather Stations






























Interactive Weather Map
Tropical Storm Tracking
New forecast layout! Learn more

10-Day Weather Forecast

Advertisements
Track Severe Weather on mobile